createdAt,value
2017-12-16T00:03:45.287Z,0
2017-12-16T00:13:45.273Z,0
2017-12-16T00:23:45.394Z,0
2017-12-16T00:33:45.313Z,0
2017-12-16T00:43:45.362Z,0
2017-12-16T00:53:45.310Z,0
2017-12-16T01:03:45.421Z,0
2017-12-16T01:13:45.371Z,0
2017-12-16T01:23:45.441Z,0
2017-12-16T01:33:45.367Z,0
2017-12-16T01:43:52.303Z,0
2017-12-16T01:53:45.417Z,0
2017-12-16T02:03:45.369Z,0
2017-12-16T02:14:20.981Z,0
2017-12-16T02:23:45.371Z,0
2017-12-16T02:33:45.469Z,0
2017-12-16T02:43:45.503Z,0
2017-12-16T02:53:45.503Z,0
2017-12-16T03:03:45.477Z,0
2017-12-16T03:13:46.012Z,0
2017-12-16T03:23:45.470Z,0
2017-12-16T03:33:45.418Z,0
2017-12-16T03:43:45.469Z,0
2017-12-16T03:53:45.433Z,0
2017-12-16T04:03:45.492Z,0
2017-12-16T04:13:45.470Z,0
2017-12-16T04:23:45.530Z,0
2017-12-16T04:33:45.499Z,0
2017-12-16T04:43:45.598Z,0
2017-12-16T04:53:45.555Z,0
2017-12-16T05:03:45.482Z,0
2017-12-16T05:13:45.545Z,0
2017-12-16T05:23:45.482Z,0
2017-12-16T05:33:45.559Z,0
2017-12-16T05:43:45.519Z,0
2017-12-16T05:53:45.607Z,0
2017-12-16T06:03:45.586Z,0
2017-12-16T06:13:45.625Z,0
2017-12-16T06:23:45.576Z,0
2017-12-16T06:33:45.602Z,0
2017-12-16T06:43:45.583Z,0
2017-12-16T06:53:45.680Z,4
2017-12-16T07:03:45.648Z,8
2017-12-16T07:13:45.585Z,36
2017-12-16T07:23:45.643Z,104
2017-12-16T07:33:45.618Z,236
2017-12-16T07:43:45.677Z,484
2017-12-16T07:53:45.639Z,792
2017-12-16T08:03:45.699Z,1092
2017-12-16T08:13:45.655Z,1612
2017-12-16T08:23:45.615Z,1592
2017-12-16T08:33:45.688Z,2344
2017-12-16T08:43:45.660Z,1800
2017-12-16T08:53:45.712Z,2368
2017-12-16T09:03:45.691Z,3092
2017-12-16T09:13:45.738Z,2512
2017-12-16T09:23:45.686Z,2360
2017-12-16T09:33:45.679Z,3112
2017-12-16T09:43:45.806Z,5864
2017-12-16T09:53:45.724Z,4016
2017-12-16T10:03:45.816Z,2664
2017-12-16T10:13:45.757Z,2352
2017-12-16T10:23:45.833Z,5220
2017-12-16T10:33:45.797Z,4516
2017-12-16T10:43:45.823Z,4332
2017-12-16T10:53:45.758Z,3500
2017-12-16T11:03:45.836Z,4932
2017-12-16T11:13:45.860Z,3152
2017-12-16T11:23:45.769Z,2792
2017-12-16T11:33:45.798Z,3576
2017-12-16T11:43:45.751Z,2672
2017-12-16T11:53:45.839Z,4644
2017-12-16T12:03:45.827Z,2648
2017-12-16T12:13:45.844Z,2804
2017-12-16T12:23:45.795Z,3208
2017-12-16T12:33:45.951Z,2492
2017-12-16T12:43:45.924Z,3340
2017-12-16T12:53:45.925Z,2620
2017-12-16T13:03:45.921Z,2428
2017-12-16T13:13:45.900Z,3044
2017-12-16T13:23:45.916Z,3240
2017-12-16T13:40:14.332Z,3200
2017-12-16T13:43:45.826Z,2200
2017-12-16T13:53:45.872Z,2132
2017-12-16T14:03:45.900Z,1920
2017-12-16T14:13:45.946Z,1700
2017-12-16T14:23:45.950Z,1564
2017-12-16T14:33:45.947Z,1060
2017-12-16T14:43:46.032Z,788
2017-12-16T14:53:45.986Z,496
2017-12-16T15:03:45.984Z,372
2017-12-16T15:13:45.960Z,196
2017-12-16T15:23:46.267Z,52
2017-12-16T15:33:45.979Z,28
2017-12-16T15:43:45.928Z,8
2017-12-16T15:53:46.344Z,4
2017-12-16T16:03:45.965Z,0
2017-12-16T16:13:46.045Z,0
2017-12-16T16:23:46.082Z,0
2017-12-16T16:33:46.155Z,4
2017-12-16T16:43:46.442Z,0
2017-12-16T16:53:46.095Z,0
2017-12-16T17:03:46.139Z,0
2017-12-16T17:13:46.054Z,0
2017-12-16T17:23:46.115Z,0
2017-12-16T17:33:46.053Z,0
2017-12-16T17:43:46.033Z,0
2017-12-16T17:53:46.165Z,0
2017-12-16T18:03:46.292Z,0
2017-12-16T18:13:46.525Z,0
2017-12-16T18:23:46.074Z,0
2017-12-16T18:33:46.148Z,0
2017-12-16T18:43:46.071Z,0
2017-12-16T18:53:46.252Z,4
2017-12-16T19:03:46.134Z,0
2017-12-16T19:13:46.362Z,0
2017-12-16T19:23:46.325Z,4
2017-12-16T19:33:46.095Z,4
2017-12-16T19:43:46.174Z,0
2017-12-16T19:53:46.164Z,0
2017-12-16T20:03:46.162Z,0
2017-12-16T20:13:46.236Z,0
2017-12-16T20:23:46.631Z,0
2017-12-16T20:33:46.489Z,0
2017-12-16T20:43:46.793Z,0
2017-12-16T20:53:46.367Z,0
2017-12-16T21:03:46.486Z,0
2017-12-16T21:13:46.303Z,0
2017-12-16T21:23:46.352Z,0
2017-12-16T21:33:46.382Z,0
2017-12-16T21:43:46.694Z,0
2017-12-16T21:53:46.388Z,0
2017-12-16T22:03:46.290Z,0
2017-12-16T22:13:46.397Z,0
2017-12-16T22:23:46.376Z,0
2017-12-16T22:33:46.732Z,0
2017-12-16T22:43:46.403Z,0
2017-12-16T22:53:46.352Z,0
2017-12-16T23:03:46.581Z,0
2017-12-16T23:13:46.385Z,0
2017-12-16T23:23:46.378Z,0
2017-12-16T23:33:46.304Z,0
2017-12-16T23:43:46.416Z,0
2017-12-16T23:53:46.350Z,0
